createdAt,value
2019-05-14T00:01:43.385Z,15.60
2019-05-14T00:04:13.298Z,15.60
2019-05-14T00:06:43.131Z,15.50
2019-05-14T00:09:13.028Z,15.60
2019-05-14T00:11:43.351Z,15.60
2019-05-14T00:14:13.354Z,15.60
2019-05-14T00:16:43.286Z,15.60
2019-05-14T00:19:13.105Z,15.60
2019-05-14T00:21:43.012Z,15.60
2019-05-14T00:24:12.833Z,15.60
2019-05-14T00:26:42.890Z,15.50
2019-05-14T00:29:12.959Z,15.50
2019-05-14T00:31:42.876Z,15.50
2019-05-14T00:34:13.812Z,15.50
2019-05-14T00:36:43.727Z,15.50
2019-05-14T00:39:13.644Z,15.50
2019-05-14T00:41:43.560Z,15.50
2019-05-14T00:44:13.648Z,15.50
2019-05-14T00:46:44.820Z,15.50
2019-05-14T00:49:15.047Z,15.40
2019-05-14T00:51:45.368Z,15.40
2019-05-14T00:54:15.282Z,15.40
2019-05-14T00:56:45.197Z,15.50
2019-05-14T00:59:15.218Z,15.50
2019-05-14T01:01:45.464Z,15.50
2019-05-14T01:04:15.351Z,15.50
2019-05-14T01:06:45.266Z,15.40
2019-05-14T01:09:15.182Z,15.40
2019-05-14T01:11:45.096Z,15.50
2019-05-14T01:14:15.010Z,15.40
2019-05-14T01:16:44.927Z,15.40
2019-05-14T01:19:14.840Z,15.40
2019-05-14T01:21:44.756Z,15.40
2019-05-14T01:24:14.758Z,15.40
2019-05-14T01:26:45.097Z,15.40
2019-05-14T01:29:15.933Z,15.50
2019-05-14T01:31:45.848Z,15.50
2019-05-14T01:34:15.765Z,15.50
2019-05-14T01:36:45.678Z,15.50
2019-05-14T01:39:15.697Z,15.40
2019-05-14T01:41:45.611Z,15.40
2019-05-14T01:44:15.935Z,15.40
2019-05-14T01:46:45.834Z,15.40
2019-05-14T01:49:15.765Z,15.40
2019-05-14T01:51:45.679Z,15.40
2019-05-14T01:54:15.594Z,15.30
2019-05-14T01:56:45.508Z,15.40
2019-05-14T01:59:15.629Z,15.40
2019-05-14T02:01:45.646Z,15.40
2019-05-14T02:04:15.561Z,15.30
2019-05-14T02:06:45.475Z,15.30
2019-05-14T02:09:15.699Z,15.30
2019-05-14T02:11:45.617Z,15.20
2019-05-14T02:14:15.527Z,15.20
2019-05-14T02:16:45.750Z,15.20
2019-05-14T02:19:15.664Z,15.20
2019-05-14T02:21:45.586Z,15.20
2019-05-14T02:24:15.496Z,15.20
2019-05-14T02:26:45.409Z,15.10
2019-05-14T02:29:15.323Z,15.10
2019-05-14T02:31:45.245Z,15.10
2019-05-14T02:34:15.147Z,15.00
2019-05-14T02:36:45.070Z,14.90
2019-05-14T02:39:14.976Z,15.00
2019-05-14T02:41:45.821Z,15.00
2019-05-14T02:44:18.627Z,15.00
2019-05-14T02:46:50.260Z,15.00
2019-05-14T02:49:19.461Z,15.00
2019-05-14T02:51:50.372Z,15.00
2019-05-14T02:54:20.702Z,14.90
2019-05-14T02:56:50.637Z,15.00
2019-05-14T02:59:20.550Z,14.90
2019-05-14T03:01:50.602Z,14.90
2019-05-14T03:04:20.685Z,15.00
2019-05-14T03:06:50.588Z,15.00
2019-05-14T03:09:20.719Z,15.00
2019-05-14T03:11:50.826Z,15.00
2019-05-14T03:14:20.758Z,15.00
2019-05-14T03:16:50.655Z,15.00
2019-05-14T03:19:21.492Z,15.00
2019-05-14T03:21:51.421Z,15.00
2019-05-14T03:24:21.337Z,15.10
2019-05-14T03:26:51.255Z,15.00
2019-05-14T03:29:25.313Z,14.90
2019-05-14T03:31:53.426Z,14.90
2019-05-14T03:34:23.448Z,14.90
2019-05-14T03:36:53.741Z,14.90
2019-05-14T03:39:23.795Z,14.80
2019-05-14T03:41:54.127Z,14.90
2019-05-14T03:44:24.037Z,14.90
2019-05-14T03:46:55.994Z,15.00
2019-05-14T03:49:28.647Z,14.90
2019-05-14T03:52:00.366Z,15.00
2019-05-14T03:54:29.807Z,15.00
2019-05-14T03:57:00.560Z,14.90
2019-05-14T03:59:31.050Z,14.90
2019-05-14T04:02:01.014Z,14.90
2019-05-14T04:04:43.918Z,14.90
2019-05-14T04:07:14.468Z,14.80
2019-05-14T04:09:44.384Z,14.80
2019-05-14T04:12:14.397Z,14.90
2019-05-14T04:14:45.550Z,14.80
2019-05-14T04:17:25.513Z,14.80
2019-05-14T04:19:49.536Z,14.90
2019-05-14T04:22:19.486Z,14.90
2019-05-14T04:24:49.900Z,14.90
2019-05-14T04:27:20.514Z,14.90
2019-05-14T04:29:53.325Z,14.90
2019-05-14T04:32:23.301Z,14.90
2019-05-14T04:34:53.268Z,14.90
2019-05-14T04:37:23.583Z,14.90
2019-05-14T04:39:53.905Z,14.90
2019-05-14T04:42:24.231Z,14.90
2019-05-14T04:44:54.144Z,14.90
2019-05-14T04:47:31.983Z,14.90
2019-05-14T04:49:55.613Z,14.90
2019-05-14T04:52:29.321Z,14.90
2019-05-14T04:54:59.589Z,14.80
2019-05-14T04:57:30.344Z,14.80
2019-05-14T05:00:01.628Z,14.80
2019-05-14T05:02:32.560Z,14.90
2019-05-14T05:05:02.478Z,14.90
2019-05-14T05:07:32.388Z,15.00
2019-05-14T05:10:02.304Z,14.90
2019-05-14T05:12:32.150Z,14.90
2019-05-14T05:15:02.768Z,14.80
2019-05-14T05:17:44.236Z,14.90
2019-05-14T05:20:06.255Z,14.90
2019-05-14T05:22:36.179Z,15.10
2019-05-14T05:25:08.373Z,15.20
2019-05-14T05:27:39.393Z,15.30
2019-05-14T05:30:09.303Z,15.50
2019-05-14T05:32:59.701Z,15.60
2019-05-14T05:35:29.818Z,15.70
2019-05-14T05:37:59.732Z,15.70
2019-05-14T05:40:29.647Z,15.70
2019-05-14T05:42:59.562Z,15.80
2019-05-14T05:45:29.784Z,15.80
2019-05-14T05:48:01.751Z,15.80
2019-05-14T05:50:32.174Z,15.80
2019-05-14T05:53:02.397Z,15.90
2019-05-14T05:55:32.310Z,15.80
2019-05-14T05:58:02.228Z,15.70
2019-05-14T06:00:39.481Z,15.70
2019-05-14T06:03:10.816Z,15.70
2019-05-14T06:05:40.060Z,15.80
2019-05-14T06:08:09.976Z,15.90
2019-05-14T06:10:40.111Z,15.80
2019-05-14T06:13:13.947Z,15.90
2019-05-14T06:15:48.487Z,16.00
2019-05-14T06:18:19.467Z,16.10
2019-05-14T06:20:49.362Z,16.10
2019-05-14T06:23:19.005Z,16.20
2019-05-14T06:25:49.425Z,16.20
2019-05-14T06:28:20.892Z,16.30
2019-05-14T06:30:52.111Z,16.30
2019-05-14T06:33:22.026Z,16.40
2019-05-14T06:35:52.971Z,16.50
2019-05-14T06:38:23.803Z,16.60
2019-05-14T06:40:53.718Z,16.70
2019-05-14T06:43:23.650Z,16.70
2019-05-14T06:45:54.877Z,16.80
2019-05-14T06:48:31.562Z,16.80
2019-05-14T06:50:58.312Z,16.90
2019-05-14T06:53:29.435Z,16.90
2019-05-14T06:55:59.349Z,16.90
2019-05-14T06:58:29.956Z,16.90
2019-05-14T07:01:04.096Z,16.90
2019-05-14T07:03:34.024Z,16.80
2019-05-14T07:06:04.014Z,16.90
2019-05-14T07:08:33.942Z,17.10
2019-05-14T07:11:03.861Z,17.30
2019-05-14T07:13:33.778Z,17.50
2019-05-14T07:16:03.687Z,17.80
2019-05-14T07:18:46.536Z,17.90
2019-05-14T07:21:05.462Z,18.10
2019-05-14T07:23:35.380Z,18.30
2019-05-14T07:26:05.297Z,18.40
2019-05-14T07:28:35.190Z,18.50
2019-05-14T07:31:05.121Z,18.70
2019-05-14T07:33:35.038Z,18.80
2019-05-14T07:36:04.955Z,18.90
2019-05-14T07:38:34.865Z,19.10
2019-05-14T07:41:04.792Z,19.10
2019-05-14T07:43:34.899Z,19.30
2019-05-14T07:46:04.815Z,19.30
2019-05-14T07:48:34.731Z,19.50
2019-05-14T07:51:04.644Z,19.60
2019-05-14T07:53:39.051Z,19.60
2019-05-14T07:56:06.419Z,19.80
2019-05-14T07:58:38.534Z,20.00
2019-05-14T08:01:09.476Z,20.00
2019-05-14T08:03:39.959Z,20.00
2019-05-14T08:06:09.765Z,20.10
2019-05-14T08:08:39.681Z,20.30
2019-05-14T08:11:09.602Z,20.40
2019-05-14T08:13:42.444Z,20.50
2019-05-14T08:16:11.064Z,20.50
2019-05-14T08:18:41.389Z,20.40
2019-05-14T08:21:11.404Z,20.40
2019-05-14T08:23:41.324Z,20.10
2019-05-14T08:26:11.236Z,19.90
2019-05-14T08:28:41.154Z,19.90
2019-05-14T08:31:11.065Z,19.90
2019-05-14T08:33:40.980Z,20.10
2019-05-14T08:36:10.997Z,20.30
2019-05-14T08:38:41.014Z,20.50
2019-05-14T08:41:10.929Z,20.60
2019-05-14T08:43:40.828Z,20.50
2019-05-14T08:46:10.759Z,20.50
2019-05-14T08:48:40.674Z,20.60
2019-05-14T08:51:10.590Z,20.80
2019-05-14T08:53:40.503Z,20.80
2019-05-14T08:56:12.226Z,20.70
2019-05-14T08:58:41.872Z,20.70
2019-05-14T09:01:11.784Z,20.80
2019-05-14T09:03:41.711Z,20.90
2019-05-14T09:06:11.598Z,20.80
2019-05-14T09:08:44.397Z,20.80
2019-05-14T09:11:13.595Z,20.80
2019-05-14T09:13:43.406Z,20.80
2019-05-14T09:16:13.638Z,20.90
2019-05-14T09:18:43.543Z,21.00
2019-05-14T09:21:13.458Z,21.20
2019-05-14T09:23:43.373Z,21.30
2019-05-14T09:26:13.595Z,21.20
2019-05-14T09:28:43.480Z,21.00
2019-05-14T09:31:13.425Z,20.80
2019-05-14T09:33:43.750Z,20.90
2019-05-14T09:36:19.441Z,21.10
2019-05-14T09:38:45.217Z,21.10
2019-05-14T09:41:15.663Z,20.90
2019-05-14T09:43:48.701Z,21.00
2019-05-14T09:46:18.647Z,21.30
2019-05-14T09:48:48.953Z,21.30
2019-05-14T09:51:19.095Z,21.50
2019-05-14T09:53:49.314Z,21.60
2019-05-14T09:56:20.253Z,21.80
2019-05-14T09:58:50.578Z,21.90
2019-05-14T10:01:20.788Z,22.00
2019-05-14T10:03:50.715Z,22.20
2019-05-14T10:06:21.034Z,22.30
2019-05-14T10:08:51.980Z,22.30
2019-05-14T10:11:21.806Z,22.20
2019-05-14T10:13:51.910Z,22.20
2019-05-14T10:16:21.825Z,22.20
2019-05-14T10:18:52.990Z,22.30
2019-05-14T10:21:23.089Z,22.40
2019-05-14T10:23:58.431Z,22.30
2019-05-14T10:26:24.559Z,22.10
2019-05-14T10:28:54.409Z,21.90
2019-05-14T10:31:24.285Z,21.60
2019-05-14T10:33:54.199Z,21.40
2019-05-14T10:36:24.119Z,21.30
2019-05-14T10:38:54.029Z,21.30
2019-05-14T10:41:23.946Z,21.30
2019-05-14T10:43:53.859Z,21.30
2019-05-14T10:46:23.773Z,21.20
2019-05-14T10:48:54.034Z,20.90
2019-05-14T10:51:23.911Z,20.80
2019-05-14T10:53:53.827Z,20.80
2019-05-14T10:56:25.481Z,20.70
2019-05-14T10:58:55.398Z,20.60
2019-05-14T11:01:28.242Z,20.50
2019-05-14T11:03:57.375Z,20.40
2019-05-14T11:06:29.371Z,20.40
2019-05-14T11:08:58.843Z,20.50
2019-05-14T11:11:29.130Z,20.50
2019-05-14T11:13:59.492Z,20.60
2019-05-14T11:16:29.345Z,20.70
2019-05-14T11:18:59.329Z,20.60
2019-05-14T11:21:30.326Z,20.40
2019-05-14T11:24:00.587Z,20.40
2019-05-14T11:26:30.428Z,20.30
2019-05-14T11:29:00.312Z,20.30
2019-05-14T11:31:33.741Z,20.30
2019-05-14T11:34:02.220Z,20.10
2019-05-14T11:36:32.197Z,19.90
2019-05-14T11:39:04.119Z,19.80
2019-05-14T11:41:34.175Z,19.60
2019-05-14T11:44:04.202Z,19.60
2019-05-14T11:46:47.013Z,19.60
2019-05-14T11:49:10.384Z,19.50
2019-05-14T11:51:59.436Z,19.50
2019-05-14T11:54:11.862Z,19.50
2019-05-14T11:56:42.112Z,19.40
2019-05-14T11:59:12.197Z,19.40
2019-05-14T12:01:42.619Z,19.20
2019-05-14T12:04:12.608Z,18.90
2019-05-14T12:06:42.552Z,18.90
2019-05-14T12:09:12.467Z,18.80
2019-05-14T12:11:42.382Z,18.80
2019-05-14T12:14:12.297Z,18.80
2019-05-14T12:16:42.209Z,18.90
2019-05-14T12:19:12.278Z,19.00
2019-05-14T12:21:59.004Z,19.10
2019-05-14T12:24:14.117Z,19.10
2019-05-14T12:26:44.031Z,19.10
2019-05-14T12:29:13.935Z,19.20
2019-05-14T12:31:44.274Z,19.20
2019-05-14T12:34:14.175Z,19.20
2019-05-14T12:36:44.083Z,19.20
2019-05-14T12:39:14.005Z,19.30
2019-05-14T12:41:43.920Z,19.30
2019-05-14T12:44:13.940Z,19.30
2019-05-14T12:46:43.851Z,19.20
2019-05-14T12:49:13.766Z,19.10
2019-05-14T12:51:43.682Z,19.00
2019-05-14T12:54:13.596Z,18.90
2019-05-14T12:56:43.512Z,19.10
2019-05-14T12:59:13.427Z,19.20
2019-05-14T13:01:43.343Z,19.20
2019-05-14T13:04:13.217Z,19.10
2019-05-14T13:06:43.288Z,19.10
2019-05-14T13:09:13.188Z,19.20
2019-05-14T13:11:43.411Z,19.10
2019-05-14T13:14:13.426Z,19.10
2019-05-14T13:16:43.252Z,19.00
2019-05-14T13:19:14.997Z,19.00
2019-05-14T13:21:44.915Z,18.90
2019-05-14T13:24:14.827Z,18.90
2019-05-14T13:26:44.746Z,18.80
2019-05-14T13:29:14.656Z,18.90
2019-05-14T13:31:44.572Z,19.00
2019-05-14T13:34:14.488Z,19.20
2019-05-14T13:36:45.056Z,19.20
2019-05-14T13:39:15.143Z,19.20
2019-05-14T13:41:45.154Z,19.20
2019-05-14T13:44:23.679Z,19.10
2019-05-14T13:46:48.615Z,19.10
2019-05-14T13:49:19.348Z,18.80
2019-05-14T13:51:49.326Z,18.80
2019-05-14T13:54:19.460Z,18.70
2019-05-14T13:56:49.454Z,18.60
2019-05-14T13:59:19.369Z,18.50
2019-05-14T14:01:49.293Z,18.30
2019-05-14T14:04:19.198Z,18.20
2019-05-14T14:06:49.179Z,18.20
2019-05-14T14:09:19.238Z,18.10
2019-05-14T14:11:49.148Z,18.10
2019-05-14T14:14:20.118Z,18.00
2019-05-14T14:16:50.234Z,18.10
2019-05-14T14:19:20.429Z,18.20
2019-05-14T14:21:50.344Z,18.20
2019-05-14T14:24:20.362Z,18.20
2019-05-14T14:26:50.203Z,18.20
2019-05-14T14:29:20.037Z,18.30
2019-05-14T14:31:49.878Z,18.20
2019-05-14T14:34:19.737Z,18.20
2019-05-14T14:36:50.066Z,18.20
2019-05-14T14:39:21.524Z,18.30
2019-05-14T14:41:51.393Z,18.30
2019-05-14T14:44:21.562Z,18.20
2019-05-14T14:46:51.458Z,17.90
2019-05-14T14:49:21.695Z,17.60
2019-05-14T14:51:51.537Z,17.60
2019-05-14T14:54:21.421Z,17.50
2019-05-14T14:56:51.271Z,17.50
2019-05-14T14:59:21.127Z,17.60
2019-05-14T15:02:12.225Z,17.60
2019-05-14T15:04:42.243Z,17.60
2019-05-14T15:07:12.268Z,17.60
2019-05-14T15:09:42.279Z,17.70
2019-05-14T15:12:12.123Z,17.60
2019-05-14T15:14:42.005Z,17.60
2019-05-14T15:17:11.921Z,17.60
2019-05-14T15:19:42.177Z,17.60
2019-05-14T15:22:12.182Z,17.40
2019-05-14T15:24:42.024Z,17.20
2019-05-14T15:27:15.290Z,16.90
2019-05-14T15:29:43.469Z,16.90
2019-05-14T15:32:13.290Z,17.00
2019-05-14T15:34:43.509Z,17.00
2019-05-14T15:37:13.373Z,17.10
2019-05-14T15:39:43.646Z,17.00
2019-05-14T15:42:14.174Z,16.90
2019-05-14T15:44:52.022Z,16.70
2019-05-14T15:47:16.009Z,16.60
2019-05-14T15:49:48.660Z,16.30
2019-05-14T15:52:19.187Z,16.30
2019-05-14T15:54:50.563Z,16.20
2019-05-14T15:57:20.344Z,16.10
2019-05-14T15:59:51.325Z,16.00
2019-05-14T16:02:21.343Z,16.10
2019-05-14T16:04:51.496Z,16.20
2019-05-14T16:07:21.329Z,16.40
2019-05-14T16:09:52.285Z,16.60
2019-05-14T16:12:22.126Z,16.70
2019-05-14T16:14:51.959Z,16.90
2019-05-14T16:17:25.386Z,17.00
2019-05-14T16:19:54.725Z,17.00
2019-05-14T16:22:24.564Z,17.00
2019-05-14T16:24:57.178Z,16.80
2019-05-14T16:27:25.875Z,16.50
2019-05-14T16:29:58.458Z,16.30
2019-05-14T16:32:28.469Z,16.20
2019-05-14T16:34:58.633Z,16.20
2019-05-14T16:37:28.547Z,16.30
2019-05-14T16:39:58.464Z,16.30
2019-05-14T16:42:29.256Z,16.30
2019-05-14T16:44:59.417Z,16.40
2019-05-14T16:47:29.332Z,16.40
2019-05-14T16:49:59.453Z,16.40
2019-05-14T16:52:29.309Z,16.50
2019-05-14T16:55:17.465Z,16.60
2019-05-14T16:57:30.830Z,16.70
2019-05-14T17:00:00.676Z,16.80
2019-05-14T17:02:30.518Z,16.90
2019-05-14T17:05:01.432Z,16.90
2019-05-14T17:07:32.557Z,16.70
2019-05-14T17:10:02.422Z,16.60
2019-05-14T17:12:48.239Z,16.60
2019-05-14T17:15:05.872Z,16.70
2019-05-14T17:17:35.787Z,16.80
2019-05-14T17:20:08.265Z,16.90
2019-05-14T17:22:39.905Z,17.00
2019-05-14T17:25:09.770Z,17.00
2019-05-14T17:27:40.053Z,16.90
2019-05-14T17:30:09.968Z,16.80
2019-05-14T17:32:40.300Z,16.90
2019-05-14T17:35:10.642Z,16.80
2019-05-14T17:37:40.843Z,16.60
2019-05-14T17:40:10.686Z,16.30
2019-05-14T17:42:40.566Z,16.20
2019-05-14T17:45:10.890Z,16.20
2019-05-14T17:47:40.806Z,16.20
2019-05-14T17:50:11.426Z,16.20
2019-05-14T17:52:44.051Z,16.20
2019-05-14T17:55:13.010Z,16.10
2019-05-14T17:57:47.399Z,16.00
2019-05-14T18:00:14.681Z,16.10
2019-05-14T18:02:44.806Z,16.20
2019-05-14T18:05:14.703Z,16.20
2019-05-14T18:07:44.631Z,16.30
2019-05-14T18:10:14.532Z,16.20
2019-05-14T18:12:44.389Z,16.20
2019-05-14T18:15:14.228Z,16.20
2019-05-14T18:17:44.198Z,16.10
2019-05-14T18:20:14.435Z,16.10
2019-05-14T18:22:45.677Z,16.10
2019-05-14T18:25:18.191Z,16.10
2019-05-14T18:27:49.698Z,16.10
2019-05-14T18:30:18.493Z,16.10
2019-05-14T18:32:48.799Z,16.00
2019-05-14T18:35:18.995Z,16.00
2019-05-14T18:37:48.924Z,16.00
2019-05-14T18:40:18.785Z,15.90
2019-05-14T18:42:48.623Z,15.90
2019-05-14T18:45:19.115Z,15.90
2019-05-14T18:47:50.069Z,15.90
2019-05-14T18:50:19.928Z,15.90
2019-05-14T18:52:49.772Z,15.90
2019-05-14T18:55:20.490Z,15.90
2019-05-14T18:57:50.402Z,15.90
2019-05-14T19:00:20.318Z,15.90
2019-05-14T19:02:50.235Z,15.80
2019-05-14T19:05:20.351Z,15.70
2019-05-14T19:07:50.267Z,15.60
2019-05-14T19:10:20.116Z,15.60
2019-05-14T19:12:50.506Z,15.50
2019-05-14T19:15:20.525Z,15.50
2019-05-14T19:17:50.438Z,15.40
2019-05-14T19:20:20.302Z,15.40
2019-05-14T19:22:50.370Z,15.40
2019-05-14T19:25:20.490Z,15.30
2019-05-14T19:27:50.404Z,15.20
2019-05-14T19:30:20.422Z,15.10
2019-05-14T19:32:50.337Z,15.10
2019-05-14T19:35:20.354Z,15.10
2019-05-14T19:37:50.196Z,15.00
2019-05-14T19:40:20.184Z,14.90
2019-05-14T19:42:51.023Z,14.80
2019-05-14T19:45:20.935Z,14.80
2019-05-14T19:47:50.850Z,14.80
2019-05-14T19:50:21.174Z,14.70
2019-05-14T19:52:51.395Z,14.70
2019-05-14T19:55:21.318Z,14.70
2019-05-14T19:57:51.227Z,14.70
2019-05-14T20:00:24.934Z,14.70
2019-05-14T20:03:08.735Z,14.60
2019-05-14T20:05:39.443Z,14.60
2019-05-14T20:08:09.626Z,14.50
2019-05-14T20:10:39.540Z,14.50
2019-05-14T20:13:09.557Z,14.50
2019-05-14T20:15:39.475Z,14.50
2019-05-14T20:18:09.295Z,14.40
2019-05-14T20:20:39.304Z,14.50
2019-05-14T20:23:09.135Z,14.40
2019-05-14T20:25:39.443Z,14.40
2019-05-14T20:28:10.275Z,14.40
2019-05-14T20:30:40.599Z,14.40
2019-05-14T20:33:10.515Z,14.30
2019-05-14T20:35:40.735Z,14.30
2019-05-14T20:38:10.651Z,14.30
2019-05-14T20:40:40.976Z,14.20
2019-05-14T20:43:10.891Z,14.30
2019-05-14T20:45:40.806Z,14.20
2019-05-14T20:48:10.720Z,14.20
2019-05-14T20:50:41.153Z,14.20
2019-05-14T20:53:11.063Z,14.10
2019-05-14T20:55:40.976Z,14.00
2019-05-14T20:58:10.890Z,14.10
2019-05-14T21:00:41.604Z,13.90
2019-05-14T21:03:11.707Z,13.70
2019-05-14T21:05:42.438Z,13.50
2019-05-14T21:08:13.498Z,13.30
2019-05-14T21:10:43.743Z,13.20
2019-05-14T21:13:13.556Z,13.10
2019-05-14T21:15:43.768Z,13.00
2019-05-14T21:18:13.691Z,12.90
2019-05-14T21:20:43.505Z,12.80
2019-05-14T21:23:13.828Z,12.80
2019-05-14T21:25:44.636Z,12.70
2019-05-14T21:28:14.580Z,12.70
2019-05-14T21:30:44.496Z,12.60
2019-05-14T21:33:14.513Z,12.60
2019-05-14T21:35:44.398Z,12.60
2019-05-14T21:38:14.546Z,12.60
2019-05-14T21:40:44.462Z,12.60
2019-05-14T21:43:14.478Z,12.50
2019-05-14T21:45:44.275Z,12.50
2019-05-14T21:48:14.206Z,12.50
2019-05-14T21:50:44.017Z,12.40
2019-05-14T21:53:13.932Z,12.20
2019-05-14T21:55:44.126Z,12.20
2019-05-14T21:58:14.899Z,12.20
2019-05-14T22:00:48.496Z,12.20
2019-05-14T22:03:20.638Z,12.00
2019-05-14T22:05:51.604Z,11.90
2019-05-14T22:08:21.705Z,11.90
2019-05-14T22:10:53.978Z,12.00
2019-05-14T22:13:24.209Z,11.90
2019-05-14T22:15:54.008Z,12.00
2019-05-14T22:18:23.936Z,12.00
2019-05-14T22:20:53.954Z,12.00
2019-05-14T22:23:23.869Z,12.00
2019-05-14T22:25:53.727Z,12.00
2019-05-14T22:28:23.800Z,12.00
2019-05-14T22:30:53.583Z,11.90
2019-05-14T22:33:23.531Z,11.90
2019-05-14T22:35:53.443Z,11.90
2019-05-14T22:38:23.870Z,11.90
2019-05-14T22:40:53.889Z,11.90
2019-05-14T22:43:24.108Z,11.90
2019-05-14T22:45:55.620Z,11.90
2019-05-14T22:48:25.494Z,11.90
2019-05-14T22:50:55.389Z,11.90
2019-05-14T22:53:25.272Z,11.90
2019-05-14T22:55:55.188Z,11.90
2019-05-14T22:58:25.939Z,11.80
2019-05-14T23:03:44.116Z,11.70
2019-05-14T23:06:13.996Z,11.70
2019-05-14T23:08:43.942Z,11.70
2019-05-14T23:11:15.438Z,11.70
2019-05-14T23:13:45.410Z,11.70
2019-05-14T23:16:29.147Z,11.70
2019-05-14T23:18:48.730Z,11.70
2019-05-14T23:21:18.815Z,11.70
2019-05-14T23:23:48.725Z,11.60
2019-05-14T23:26:19.238Z,11.60
2019-05-14T23:28:49.368Z,11.50
2019-05-14T23:31:19.391Z,11.50
2019-05-14T23:33:49.338Z,11.50
2019-05-14T23:36:19.251Z,11.50
2019-05-14T23:38:49.334Z,11.40
2019-05-14T23:41:19.490Z,11.40
2019-05-14T23:43:49.376Z,11.30
2019-05-14T23:46:19.321Z,11.20
2019-05-14T23:48:49.204Z,11.30
2019-05-14T23:51:19.149Z,11.30
2019-05-14T23:53:48.932Z,11.20
2019-05-14T23:56:19.355Z,11.20
2019-05-14T23:58:55.854Z,11.20
